Time;durP1;ratioP1;P1;durP2;ratioP2;P2;SDS_P1;SDS_P2;PMS_P1;PMS_P2;Temp;Humidity;BMP_temperature;BMP_pressure;BME280_temperature;BME280_humidity;BME280_pressure;Samples;Min_cycle;Max_cycle;Signal;HPM_P1;HPM_P2
2023/08/21 00:01:59;;;;;;;19.52;11.70;;;;;;;19.79;90.99;102170.56;5078883;28;20043;-70
2023/08/21 00:04:25;;;;;;;18.10;12.35;;;;;;;19.75;91.45;102167.59;5092394;28;20020;-70
2023/08/21 00:06:50;;;;;;;18.70;12.20;;;;;;;19.75;91.91;102164.78;5085018;28;20114;-70
2023/08/21 00:09:16;;;;;;;18.70;12.20;;;;;;;19.76;91.50;102169.25;5076512;28;20078;-70
2023/08/21 00:11:41;;;;;;;19.45;12.13;;;;;;;19.75;91.74;102161.19;5074166;28;20090;-71
2023/08/21 00:14:07;;;;;;;19.92;12.35;;;;;;;19.68;91.98;102163.69;5084045;28;20480;-70
2023/08/21 00:16:33;;;;;;;20.38;12.15;;;;;;;19.68;92.22;102170.13;5074522;28;20062;-70
2023/08/21 00:18:58;;;;;;;20.13;11.90;;;;;;;19.68;92.65;102169.31;5073361;28;20362;-70
2023/08/21 00:21:24;;;;;;;19.42;12.85;;;;;;;19.57;92.68;102158.44;5091829;28;20073;-71
2023/08/21 00:23:49;;;;;;;19.45;12.88;;;;;;;19.49;93.57;102165.72;5086681;28;20074;-70
2023/08/21 00:26:15;;;;;;;19.95;13.00;;;;;;;19.49;93.69;102159.31;5071793;28;20032;-70
2023/08/21 00:28:40;;;;;;;19.25;12.48;;;;;;;19.49;93.81;102159.31;5083321;28;20047;-69
2023/08/21 00:31:06;;;;;;;19.20;13.10;;;;;;;19.41;93.77;102155.38;5087646;28;20079;-70
2023/08/21 00:33:32;;;;;;;19.23;12.70;;;;;;;19.41;94.95;102162.97;5078631;28;20491;-69
2023/08/21 00:35:58;;;;;;;19.90;13.32;;;;;;;19.39;94.17;102165.28;5102903;28;20027;-70
2023/08/21 00:38:24;;;;;;;19.05;12.50;;;;;;;19.42;94.20;102168.25;5107216;28;20040;-71
2023/08/21 00:40:50;;;;;;;19.30;12.43;;;;;;;19.41;94.80;102163.78;5081489;28;20167;-71
2023/08/21 00:43:15;;;;;;;20.27;12.60;;;;;;;19.39;95.21;102154.88;5078484;28;20392;-71
2023/08/21 00:45:43;;;;;;;19.67;13.60;;;;;;;19.36;94.95;102149.09;5077667;28;20396;-70
2023/08/21 00:48:10;;;;;;;20.33;13.30;;;;;;;19.33;95.20;102150.59;5093357;28;20036;-70
2023/08/21 00:50:36;;;;;;;20.40;12.40;;;;;;;19.32;95.58;102152.56;5076415;28;20108;-70
2023/08/21 00:53:03;;;;;;;19.67;13.02;;;;;;;19.25;96.09;102143.84;5088524;28;20032;-70
2023/08/21 00:55:30;;;;;;;19.40;12.77;;;;;;;19.21;96.27;102147.66;5084119;28;20058;-70
2023/08/21 00:57:56;;;;;;;19.63;12.75;;;;;;;19.13;96.21;102149.31;5084076;28;20043;-69
2023/08/21 01:00:22;;;;;;;19.30;13.15;;;;;;;19.05;97.12;102165.03;5074209;28;20368;-69
2023/08/21 01:02:48;;;;;;;19.52;13.65;;;;;;;18.97;97.29;102158.28;5092351;28;20047;-70
2023/08/21 01:05:13;;;;;;;20.63;12.70;;;;;;;18.97;97.49;102149.03;5092823;28;20035;-70
2023/08/21 01:07:51;;;;;;;18.23;12.85;;;;;;;18.92;97.93;102154.78;5087481;28;20032;-70
2023/08/21 01:10:39;;;;;;;18.08;12.32;;;;;;;18.96;97.57;102153.00;5081474;28;20029;-70
2023/08/21 01:13:15;;;;;;;19.15;12.85;;;;;;;18.94;97.96;102161.72;5072705;28;20029;-71
2023/08/21 01:15:43;;;;;;;20.88;12.68;;;;;;;18.94;97.68;102158.91;5072459;28;20068;-70
2023/08/21 01:18:09;;;;;;;19.02;13.25;;;;;;;19.01;98.02;102159.25;5072458;28;20036;-70
2023/08/21 01:20:35;;;;;;;22.02;13.38;;;;;;;19.02;97.44;102165.69;5072325;28;20067;-71
2023/08/21 01:23:05;;;;;;;20.70;14.13;;;;;;;19.01;98.21;102159.25;5070994;28;20019;-72
2023/08/21 01:25:32;;;;;;;19.67;12.55;;;;;;;19.00;98.54;102162.38;5079947;28;20366;-72
2023/08/21 01:27:58;;;;;;;19.38;13.52;;;;;;;18.99;98.59;102152.31;5078113;28;20044;-70
2023/08/21 01:30:28;;;;;;;20.02;13.63;;;;;;;18.99;99.09;102160.72;5079698;28;20138;-71
2023/08/21 01:33:10;;;;;;;19.40;13.20;;;;;;;18.98;98.49;102153.50;5083734;28;20062;-70
2023/08/21 01:35:36;;;;;;;18.02;12.95;;;;;;;18.99;98.54;102155.13;5078229;28;20075;-70
2023/08/21 01:38:03;;;;;;;19.83;12.88;;;;;;;18.96;98.48;102153.81;5084797;28;20058;-70
2023/08/21 01:40:29;;;;;;;21.23;12.75;;;;;;;18.92;98.76;102151.97;5079480;28;20064;-70
2023/08/21 01:42:55;;;;;;;20.88;13.40;;;;;;;18.81;99.84;102143.91;5071887;28;20060;-69
2023/08/21 01:45:21;;;;;;;20.52;13.30;;;;;;;18.67;100.00;102144.06;5083485;28;20077;-70
2023/08/21 01:47:47;;;;;;;19.70;13.57;;;;;;;18.56;100.00;102139.97;5072121;28;20035;-70
2023/08/21 01:50:13;;;;;;;20.50;13.93;;;;;;;18.49;100.00;102134.03;5072368;28;20032;-70
2023/08/21 01:52:38;;;;;;;19.17;13.05;;;;;;;18.43;100.00;102146.56;5085624;28;20036;-70
2023/08/21 01:55:06;;;;;;;20.90;13.40;;;;;;;18.38;100.00;102136.34;5097762;28;20403;-68
2023/08/21 01:57:32;;;;;;;20.55;14.15;;;;;;;18.37;100.00;102140.28;5086372;28;20032;-71
2023/08/21 01:59:57;;;;;;;20.02;14.07;;;;;;;18.34;100.00;102140.94;5075169;28;20037;-70
2023/08/21 02:02:23;;;;;;;20.80;13.57;;;;;;;18.31;100.00;102142.41;5075413;28;20027;-70
2023/08/21 02:04:49;;;;;;;20.65;13.98;;;;;;;18.26;100.00;102141.75;5070254;28;20047;-70
2023/08/21 02:07:15;;;;;;;21.00;13.88;;;;;;;18.19;100.00;102143.06;5091785;28;20036;-70
2023/08/21 02:09:40;;;;;;;20.15;14.00;;;;;;;18.19;100.00;102148.66;5078708;28;20108;-70
2023/08/21 02:12:06;;;;;;;21.00;14.27;;;;;;;18.21;100.00;102149.19;5055808;28;20051;-70
2023/08/21 02:14:32;;;;;;;20.42;14.30;;;;;;;18.19;100.00;102145.03;5073034;28;20021;-70
2023/08/21 02:16:57;;;;;;;20.50;14.00;;;;;;;18.21;100.00;102151.97;5079916;28;20115;-69
2023/08/21 02:19:23;;;;;;;20.77;13.98;;;;;;;18.23;100.00;102158.06;5090200;28;20404;-69
2023/08/21 02:21:48;;;;;;;21.92;13.95;;;;;;;18.21;100.00;102148.34;5082240;28;20393;-70
2023/08/21 02:24:14;;;;;;;22.17;14.07;;;;;;;18.20;100.00;102150.31;5072705;28;20148;-70
2023/08/21 02:26:40;;;;;;;20.60;14.65;;;;;;;18.25;100.00;102152.16;5070085;28;20101;-70
2023/08/21 02:29:05;;;;;;;20.67;14.30;;;;;;;18.30;100.00;102151.16;5078885;28;20040;-71
2023/08/21 02:31:31;;;;;;;20.27;13.90;;;;;;;18.30;100.00;102148.34;5088663;28;20044;-69
2023/08/21 02:33:56;;;;;;;21.52;15.07;;;;;;;18.30;100.00;102159.56;5085388;28;20035;-70
2023/08/21 02:36:22;;;;;;;19.77;14.25;;;;;;;18.29;100.00;102155.91;5088041;28;20034;-70
2023/08/21 02:38:49;;;;;;;20.98;13.60;;;;;;;18.28;100.00;102161.84;5084660;28;20036;-69
2023/08/21 02:41:15;;;;;;;21.83;14.30;;;;;;;18.27;100.00;102157.41;5062722;28;20028;-71
2023/08/21 02:43:40;;;;;;;21.48;13.68;;;;;;;18.28;100.00;102161.84;5075019;28;20046;-70
2023/08/21 02:46:06;;;;;;;22.60;14.60;;;;;;;18.30;100.00;102154.78;5071404;28;20035;-70
2023/08/21 02:48:32;;;;;;;22.38;13.68;;;;;;;18.31;100.00;102153.63;5088614;28;20044;-69
2023/08/21 02:50:57;;;;;;;21.52;13.85;;;;;;;18.32;100.00;102154.47;5084499;28;20032;-70
2023/08/21 02:53:23;;;;;;;22.00;14.05;;;;;;;18.31;100.00;102147.22;5090650;28;20078;-70
2023/08/21 02:55:49;;;;;;;22.48;14.52;;;;;;;18.28;100.00;102154.28;5077414;28;20055;-70
2023/08/21 02:58:14;;;;;;;20.35;14.68;;;;;;;18.24;100.00;102151.31;5074324;28;20090;-70
2023/08/21 03:00:40;;;;;;;21.00;13.90;;;;;;;18.19;100.00;102153.44;5089418;28;20447;-70
2023/08/21 03:03:05;;;;;;;21.17;14.07;;;;;;;18.15;100.00;102153.25;5074914;28;20035;-70
2023/08/21 03:05:31;;;;;;;18.77;13.73;;;;;;;18.14;100.00;102151.59;5086350;28;20081;-68
2023/08/21 03:07:56;;;;;;;22.73;14.48;;;;;;;18.09;100.00;102154.56;5072417;28;20034;-69
2023/08/21 03:10:23;;;;;;;24.17;14.73;;;;;;;18.02;100.00;102152.25;5084459;28;20162;-69
2023/08/21 03:12:48;;;;;;;22.13;14.95;;;;;;;17.90;100.00;102149.25;5081266;28;20048;-69
2023/08/21 03:15:14;;;;;;;22.65;15.10;;;;;;;17.83;100.00;102151.66;5080324;28;20032;-70
2023/08/21 03:17:39;;;;;;;21.45;14.63;;;;;;;17.77;100.00;102151.81;5074377;28;20036;-69
2023/08/21 03:20:05;;;;;;;22.27;15.65;;;;;;;17.70;100.00;102154.28;5074693;28;20483;-69
2023/08/21 03:22:31;;;;;;;23.90;15.90;;;;;;;17.65;100.00;102150.78;5073983;28;20078;-71
2023/08/21 03:24:57;;;;;;;22.13;15.98;;;;;;;17.60;100.00;102151.75;5085387;28;20089;-70
2023/08/21 03:27:22;;;;;;;21.27;15.90;;;;;;;17.53;100.00;102156.97;5074770;28;20036;-70
2023/08/21 03:29:48;;;;;;;21.38;15.70;;;;;;;17.50;100.00;102157.63;5081207;28;20028;-69
2023/08/21 03:32:17;;;;;;;22.83;15.43;;;;;;;17.54;100.00;102155.81;5082595;28;20515;-69
2023/08/21 03:34:43;;;;;;;24.23;16.38;;;;;;;17.49;100.00;102158.78;5075872;28;20036;-69
2023/08/21 03:37:08;;;;;;;25.05;15.23;;;;;;;17.54;100.00;102164.22;5073464;28;20035;-69
2023/08/21 03:39:34;;;;;;;20.92;15.80;;;;;;;17.51;100.00;102160.09;5075624;28;20036;-69
2023/08/21 03:41:59;;;;;;;25.20;16.38;;;;;;;17.50;100.00;102157.63;5073332;28;20115;-69
2023/08/21 03:44:24;;;;;;;21.65;15.90;;;;;;;17.49;100.00;102155.97;5079713;28;20043;-69
2023/08/21 03:46:50;;;;;;;22.35;15.93;;;;;;;17.50;100.00;102152.03;5093068;28;20111;-69
2023/08/21 03:49:15;;;;;;;23.05;16.08;;;;;;;17.44;100.00;102154.97;5086491;28;20048;-68
2023/08/21 03:51:40;;;;;;;23.20;16.40;;;;;;;17.45;100.00;102151.03;5086841;28;20028;-69
2023/08/21 03:54:06;;;;;;;22.33;16.38;;;;;;;17.45;100.00;102148.22;5093258;28;20059;-70
2023/08/21 03:56:31;;;;;;;22.52;15.65;;;;;;;17.43;100.00;102144.09;5073472;28;20431;-69
2023/08/21 03:58:56;;;;;;;21.02;16.02;;;;;;;17.43;100.00;102144.09;5078715;28;20472;-69
2023/08/21 04:01:22;;;;;;;23.15;15.15;;;;;;;17.41;100.00;102150.03;5082782;28;20040;-69
2023/08/21 04:03:47;;;;;;;21.50;15.13;;;;;;;17.36;100.00;102143.75;5072694;28;20107;-69
2023/08/21 04:06:12;;;;;;;22.25;15.88;;;;;;;17.35;100.00;102142.91;5077126;28;20388;-69
2023/08/21 04:08:38;;;;;;;22.90;15.65;;;;;;;17.34;100.00;102146.03;5073322;28;20028;-69
2023/08/21 04:11:04;;;;;;;21.77;15.25;;;;;;;17.33;100.00;102147.19;5081910;28;20048;-70
2023/08/21 04:13:29;;;;;;;22.42;16.30;;;;;;;17.32;100.00;102149.16;5092175;28;20028;-69
2023/08/21 04:15:56;;;;;;;23.23;16.73;;;;;;;17.35;100.00;102159.69;5073125;28;20134;-70
2023/08/21 04:18:22;;;;;;;22.95;15.52;;;;;;;17.34;100.00;102155.25;5090857;28;20028;-70
2023/08/21 04:20:50;;;;;;;22.92;16.10;;;;;;;17.29;100.00;102153.41;5080765;28;20024;-70
2023/08/21 04:23:15;;;;;;;22.38;16.77;;;;;;;17.26;100.00;102147.63;5092655;28;20111;-70
2023/08/21 04:25:41;;;;;;;22.95;16.25;;;;;;;17.27;100.00;102152.91;5080511;28;20119;-70
2023/08/21 04:28:07;;;;;;;22.08;16.27;;;;;;;17.29;100.00;102156.19;5080444;28;20032;-70
2023/08/21 04:30:33;;;;;;;21.98;16.25;;;;;;;17.28;100.00;102153.72;5091793;28;20047;-69
2023/08/21 04:32:59;;;;;;;21.17;16.10;;;;;;;17.23;100.00;102157.50;5082194;28;20035;-70
2023/08/21 04:35:24;;;;;;;21.95;16.73;;;;;;;17.21;100.00;102158.97;5077657;28;20044;-69
2023/08/21 04:37:49;;;;;;;23.27;16.75;;;;;;;17.25;100.00;102166.38;5081419;28;20024;-69
2023/08/21 04:40:17;;;;;;;22.80;16.85;;;;;;;17.23;100.00;102159.47;5072410;28;20438;-69
2023/08/21 04:42:43;;;;;;;23.55;16.73;;;;;;;17.21;100.00;102161.75;5074938;28;20033;-71
2023/08/21 04:45:09;;;;;;;23.38;17.02;;;;;;;17.21;100.00;102159.78;5074509;28;20029;-69
2023/08/21 04:47:35;;;;;;;24.17;16.13;;;;;;;17.25;100.00;102159.94;5080001;28;20038;-69
2023/08/21 04:50:00;;;;;;;22.85;15.65;;;;;;;17.33;100.00;102173.19;5081269;28;20104;-69
2023/08/21 04:52:26;;;;;;;23.00;15.73;;;;;;;17.38;100.00;102175.03;5075837;28;20024;-69
2023/08/21 04:54:52;;;;;;;23.85;15.25;;;;;;;17.45;100.00;102178.19;5084626;28;20028;-69
2023/08/21 04:57:17;;;;;;;25.02;16.17;;;;;;;17.52;100.00;102177.72;5090751;28;20543;-69
2023/08/21 04:59:46;;;;;;;23.05;15.50;;;;;;;17.56;100.00;102176.75;5075755;28;20086;-69
2023/08/21 05:02:12;;;;;;;25.27;17.08;;;;;;;17.65;100.00;102182.38;5091859;28;20038;-69
2023/08/21 05:04:37;;;;;;;23.88;16.27;;;;;;;17.72;100.00;102181.94;5078724;28;20020;-69
2023/08/21 05:07:04;;;;;;;25.08;15.93;;;;;;;17.75;100.00;102187.69;5071608;28;20064;-69
2023/08/21 05:09:29;;;;;;;24.80;16.25;;;;;;;17.74;100.00;102183.25;5079927;28;20822;-69
2023/08/21 05:11:55;;;;;;;23.38;15.70;;;;;;;17.77;100.00;102187.38;5084461;28;20040;-70
2023/08/21 05:14:21;;;;;;;23.65;15.55;;;;;;;17.80;100.00;102188.72;5091314;28;20035;-69
2023/08/21 05:16:47;;;;;;;24.23;14.88;;;;;;;17.82;100.00;102192.84;5085422;28;20044;-69
2023/08/21 05:19:12;;;;;;;23.65;15.32;;;;;;;17.86;100.00;102199.44;5085353;28;20035;-69
2023/08/21 05:21:38;;;;;;;28.55;21.08;;;;;;;17.87;100.00;102198.28;5081576;28;20031;-69
2023/08/21 05:24:03;;;;;;;24.38;16.20;;;;;;;17.91;100.00;102206.84;5071498;28;20033;-69
2023/08/21 05:26:28;;;;;;;23.10;16.00;;;;;;;17.92;100.00;102202.91;5076949;28;20024;-69
2023/08/21 05:28:54;;;;;;;22.08;15.82;;;;;;;17.98;100.00;102206.41;5077627;28;20063;-70
2023/08/21 05:31:19;;;;;;;23.10;16.00;;;;;;;17.98;100.00;102203.63;5087697;28;20044;-69
2023/08/21 05:33:45;;;;;;;23.05;16.38;;;;;;;17.95;100.00;102191.06;5077645;28;20107;-70
2023/08/21 05:36:10;;;;;;;25.65;16.67;;;;;;;17.95;100.00;102207.06;5071091;28;20021;-70
2023/08/21 05:38:36;;;;;;;22.98;16.30;;;;;;;17.98;100.00;102203.63;5082125;28;20046;-69
2023/08/21 05:41:01;;;;;;;23.38;16.40;;;;;;;18.04;100.00;102202.34;5091282;28;20503;-69
2023/08/21 05:43:26;;;;;;;22.10;16.45;;;;;;;18.07;100.00;102210.06;5076130;28;20032;-69
2023/08/21 05:45:52;;;;;;;23.92;16.52;;;;;;;18.13;100.00;102214.41;5089474;28;20495;-70
2023/08/21 05:48:17;;;;;;;24.27;17.20;;;;;;;18.15;100.00;102212.06;5081852;28;20067;-69
2023/08/21 05:50:42;;;;;;;22.67;16.25;;;;;;;18.22;100.00;102218.03;5086008;28;20115;-69
2023/08/21 05:53:08;;;;;;;23.30;15.95;;;;;;;18.21;100.00;102221.16;5087468;28;20040;-70
2023/08/21 05:55:33;;;;;;;22.13;16.30;;;;;;;18.17;100.00;102220.16;5079601;28;20529;-70
2023/08/21 05:57:59;;;;;;;23.42;16.02;;;;;;;18.26;100.00;102214.56;5089307;28;20104;-69
2023/08/21 06:00:24;;;;;;;22.17;16.17;;;;;;;18.26;100.00;102211.78;5070619;28;20123;-70
2023/08/21 06:02:49;;;;;;;22.95;15.93;;;;;;;18.29;100.00;102211.94;5070805;28;20021;-71
2023/08/21 06:05:15;;;;;;;24.23;17.38;;;;;;;18.32;100.00;102218.91;5070337;28;20035;-69
2023/08/21 06:07:40;;;;;;;23.52;17.48;;;;;;;18.32;100.00;102210.50;5073096;28;20024;-69
2023/08/21 06:10:12;;;;;;;22.00;16.75;;;;;;;18.40;100.00;102223.69;5077593;28;20574;-70
2023/08/21 06:12:38;;;;;;;24.10;16.98;;;;;;;18.42;100.00;102218.56;5077829;28;20023;-69
2023/08/21 06:15:04;;;;;;;24.48;17.17;;;;;;;18.44;100.00;102218.25;5089285;28;20032;-68
2023/08/21 06:17:29;;;;;;;21.92;16.13;;;;;;;18.46;100.00;102221.56;5071790;28;20107;-68
2023/08/21 06:19:55;;;;;;;23.17;16.35;;;;;;;18.52;100.00;102214.63;5070804;28;20052;-68
2023/08/21 06:22:20;;;;;;;23.83;17.17;;;;;;;18.58;100.00;102215.31;5081094;28;20036;-69
2023/08/21 06:24:46;;;;;;;22.15;16.75;;;;;;;18.67;100.00;102221.75;5070708;28;20021;-69
2023/08/21 06:27:11;;;;;;;24.17;16.58;;;;;;;18.75;100.00;102220.91;5074300;28;20040;-69
2023/08/21 06:29:40;;;;;;;24.50;17.05;;;;;;;18.80;100.00;102229.16;5087829;28;20016;-68
2023/08/21 06:32:05;;;;;;;25.52;18.70;;;;;;;18.88;100.00;102219.09;5085662;28;20048;-69
2023/08/21 06:34:31;;;;;;;23.27;16.45;;;;;;;18.97;100.00;102228.38;5071193;28;20039;-69
2023/08/21 06:36:56;;;;;;;22.13;15.93;;;;;;;19.02;100.00;102230.19;5072942;28;20043;-68
2023/08/21 06:39:21;;;;;;;23.75;16.17;;;;;;;19.15;100.00;102236.78;5082035;28;20031;-68
2023/08/21 06:41:46;;;;;;;23.10;14.75;;;;;;;19.21;100.00;102232.66;5075868;28;20391;-69
2023/08/21 06:44:12;;;;;;;22.98;14.60;;;;;;;19.30;100.00;102229.81;5083442;28;20020;-69
2023/08/21 06:46:37;;;;;;;22.55;14.13;;;;;;;19.37;99.69;102229.31;5093220;28;20096;-68
2023/08/21 06:49:03;;;;;;;22.52;13.68;;;;;;;19.39;99.37;102232.63;5086129;28;20036;-69
2023/08/21 06:51:28;;;;;;;21.45;14.48;;;;;;;19.42;99.44;102234.75;5074343;28;20024;-69
2023/08/21 06:53:54;;;;;;;20.58;13.85;;;;;;;19.44;99.00;102238.91;5085303;28;20128;-69
2023/08/21 06:56:19;;;;;;;22.23;14.57;;;;;;;19.52;99.67;102227.97;5074854;28;20024;-68
2023/08/21 06:58:44;;;;;;;21.35;13.60;;;;;;;19.64;98.61;102226.13;5087610;28;20052;-68
2023/08/21 07:01:10;;;;;;;21.08;13.82;;;;;;;19.73;98.00;102228.91;5084103;28;20105;-68
2023/08/21 07:03:35;;;;;;;21.25;14.18;;;;;;;19.80;97.58;102229.22;5089590;28;20115;-69
2023/08/21 07:06:00;;;;;;;22.38;15.07;;;;;;;19.91;97.90;102231.69;5082551;28;20028;-68
2023/08/21 07:08:26;;;;;;;23.60;15.00;;;;;;;20.03;96.33;102234.56;5094171;28;20484;-68
2023/08/21 07:10:52;;;;;;;22.50;13.73;;;;;;;20.12;95.49;102237.34;5087957;28;20135;-67
2023/08/21 07:13:18;;;;;;;21.63;13.93;;;;;;;20.26;95.05;102234.31;5078841;28;20030;-68
2023/08/21 07:15:43;;;;;;;21.95;13.23;;;;;;;20.28;93.35;102240.41;5090801;28;20046;-68
2023/08/21 07:18:08;;;;;;;21.35;13.45;;;;;;;20.33;93.21;102237.41;5081548;28;20322;-68
2023/08/21 07:20:34;;;;;;;22.13;13.20;;;;;;;20.42;93.11;102235.34;5073633;28;20035;-71
2023/08/21 07:23:00;;;;;;;19.02;12.82;;;;;;;20.47;92.31;102234.34;5074743;28;20033;-70
2023/08/21 07:25:26;;;;;;;21.63;13.20;;;;;;;20.45;90.32;102233.84;5073564;28;20032;-70
2023/08/21 07:27:55;;;;;;;21.30;12.88;;;;;;;20.54;91.94;102228.19;5073423;28;20078;-69
2023/08/21 07:30:22;;;;;;;22.48;12.93;;;;;;;20.60;91.36;102234.44;5082343;28;20055;-70
2023/08/21 07:32:48;;;;;;;22.73;13.60;;;;;;;20.71;91.74;102238.50;5075952;28;20032;-70
2023/08/21 07:35:13;;;;;;;21.40;13.07;;;;;;;20.80;91.65;102233.66;5088124;28;20077;-69
2023/08/21 07:37:40;;;;;;;22.10;12.80;;;;;;;20.75;87.60;102239.47;5073789;28;20110;-72
2023/08/21 07:40:07;;;;;;;20.38;12.88;;;;;;;20.82;89.28;102242.56;5079055;28;20118;-70
2023/08/21 07:42:32;;;;;;;21.27;13.13;;;;;;;20.94;88.40;102241.81;5071888;28;20027;-70
2023/08/21 07:44:57;;;;;;;20.55;13.38;;;;;;;21.06;87.90;102241.03;5080779;28;20028;-71
2023/08/21 07:47:23;;;;;;;24.13;16.00;;;;;;;21.13;86.40;102243.28;5090198;28;20028;-70
2023/08/21 07:49:48;;;;;;;23.05;14.98;;;;;;;21.26;86.16;102244.97;5090873;28;20028;-71
2023/08/21 07:52:15;;;;;;;23.67;12.98;;;;;;;21.33;85.33;102245.25;5072322;28;20496;-70
2023/08/21 07:54:40;;;;;;;21.63;12.90;;;;;;;21.34;83.55;102244.09;5072223;28;20116;-69
2023/08/21 07:57:06;;;;;;;20.55;12.43;;;;;;;21.35;84.36;102247.72;5091484;28;20115;-69
2023/08/21 07:59:32;;;;;;;21.13;11.85;;;;;;;21.46;84.24;102251.75;5083329;28;20039;-70
2023/08/21 08:01:57;;;;;;;20.80;11.32;;;;;;;21.55;82.63;102259.28;5077278;28;20488;-69
2023/08/21 08:04:23;;;;;;;19.52;11.40;;;;;;;21.77;82.93;102243.97;5081621;28;20025;-69
2023/08/21 08:06:48;;;;;;;18.92;11.73;;;;;;;21.89;80.80;102245.97;5085283;28;20024;-68
2023/08/21 08:09:13;;;;;;;21.65;11.63;;;;;;;22.07;80.55;102241.78;5092051;28;20024;-69
2023/08/21 08:11:39;;;;;;;18.52;11.07;;;;;;;22.26;79.11;102246.00;5091566;28;20055;-68
2023/08/21 08:14:04;;;;;;;18.20;10.85;;;;;;;22.45;78.25;102248.25;5091800;28;20040;-67
2023/08/21 08:16:30;;;;;;;17.90;10.90;;;;;;;22.57;75.63;102255.88;5092067;28;20020;-67
2023/08/21 08:18:55;;;;;;;19.83;10.70;;;;;;;22.72;75.44;102260.75;5092602;28;20036;-67
2023/08/21 08:21:20;;;;;;;17.92;10.48;;;;;;;22.77;72.83;102268.16;5091851;28;20423;-67
2023/08/21 08:23:46;;;;;;;21.05;11.00;;;;;;;22.81;73.42;102262.66;5092141;28;20055;-68
2023/08/21 08:26:11;;;;;;;18.55;11.07;;;;;;;22.90;74.16;102260.50;5091364;28;20042;-67
2023/08/21 08:28:36;;;;;;;21.50;11.93;;;;;;;22.94;72.90;102254.97;5091691;28;20115;-67
2023/08/21 08:31:02;;;;;;;19.13;11.10;;;;;;;23.03;72.38;102259.28;5091152;28;20075;-68
2023/08/21 08:33:27;;;;;;;19.73;11.02;;;;;;;23.09;71.46;102250.56;5091808;28;20107;-68
2023/08/21 08:35:53;;;;;;;23.90;12.02;;;;;;;23.08;70.81;102254.56;5091625;28;20076;-67
2023/08/21 08:38:19;;;;;;;18.85;10.43;;;;;;;23.00;70.54;102259.97;5091511;28;20020;-68
2023/08/21 08:40:47;;;;;;;18.80;10.95;;;;;;;22.86;70.47;102254.72;5091286;28;20102;-69
2023/08/21 08:43:13;;;;;;;20.55;10.80;;;;;;;22.81;71.24;102242.91;5091319;28;20120;-68
2023/08/21 08:45:40;;;;;;;19.45;11.18;;;;;;;22.81;73.62;102252.19;5091079;28;20102;-69
2023/08/21 08:48:06;;;;;;;17.98;10.55;;;;;;;22.99;73.48;102257.53;5091024;28;20055;-69
2023/08/21 08:50:32;;;;;;;18.27;10.77;;;;;;;23.22;72.36;102257.81;5089785;28;20039;-69
2023/08/21 08:52:59;;;;;;;18.10;10.63;;;;;;;23.38;71.20;102262.72;5084777;28;20049;-68
2023/08/21 08:55:25;;;;;;;19.42;10.32;;;;;;;23.51;70.60;102253.81;5089003;28;20071;-68
2023/08/21 08:57:52;;;;;;;20.38;11.13;;;;;;;23.57;69.24;102259.97;5077679;28;20063;-69
2023/08/21 09:00:17;;;;;;;18.13;10.23;;;;;;;23.68;69.04;102255.44;5070919;28;20044;-68
2023/08/21 09:02:42;;;;;;;19.10;10.38;;;;;;;23.72;67.23;102251.91;5070624;28;20036;-68
2023/08/21 09:05:09;;;;;;;18.27;10.55;;;;;;;23.79;67.29;102261.41;5070568;28;20024;-68
2023/08/21 09:07:34;;;;;;;18.50;10.07;;;;;;;23.72;66.33;102252.72;5070480;28;20029;-68
2023/08/21 09:10:00;;;;;;;22.55;11.32;;;;;;;23.74;66.70;102253.19;5070239;28;20373;-68
2023/08/21 09:12:25;;;;;;;20.45;10.30;;;;;;;23.75;67.77;102249.19;5074437;28;20671;-69
2023/08/21 09:14:51;;;;;;;18.05;9.77;;;;;;;23.68;68.38;102249.81;5081800;28;20036;-68
2023/08/21 09:17:16;;;;;;;24.08;11.15;;;;;;;23.67;68.10;102258.66;5075254;28;20060;-68
2023/08/21 09:19:43;;;;;;;19.25;10.10;;;;;;;23.59;66.07;102254.00;5070681;28;20032;-68
2023/08/21 09:22:17;;;;;;;18.85;10.57;;;;;;;23.52;67.09;102251.78;5070253;28;20085;-68
2023/08/21 09:25:10;;;;;;;17.60;10.50;;;;;;;23.71;68.49;102239.78;5070264;28;20361;-69
2023/08/21 09:27:39;;;;;;;18.00;10.10;;;;;;;23.85;66.18;102253.47;5077248;28;20488;-68
2023/08/21 09:30:15;;;;;;;17.48;10.27;;;;;;;23.90;64.29;102249.56;5072701;28;20044;-68
2023/08/21 09:32:52;;;;;;;18.48;9.82;;;;;;;23.98;64.81;102248.59;5068590;28;20029;-68
2023/08/21 09:35:18;;;;;;;18.30;10.13;;;;;;;24.02;63.10;102252.31;5068507;28;20484;-68
2023/08/21 09:37:46;;;;;;;15.70;10.13;;;;;;;24.06;62.82;102238.25;5070080;28;20033;-68
2023/08/21 09:40:12;;;;;;;18.33;10.30;;;;;;;24.33;63.96;102242.16;5069946;28;20028;-68
2023/08/21 09:42:39;;;;;;;18.05;10.25;;;;;;;24.47;61.38;102244.50;5068516;28;20361;-68
2023/08/21 09:45:05;;;;;;;19.83;10.90;;;;;;;24.57;61.60;102240.25;5070083;28;20457;-69
2023/08/21 09:47:31;;;;;;;18.65;10.70;;;;;;;24.67;61.69;102251.00;5069959;28;20095;-69
2023/08/21 09:49:57;;;;;;;19.13;10.60;;;;;;;24.69;61.60;102239.34;5068536;28;20034;-68
2023/08/21 09:52:22;;;;;;;18.67;10.38;;;;;;;24.73;61.21;102241.06;5070213;28;20032;-68
2023/08/21 09:54:49;;;;;;;18.45;11.00;;;;;;;24.90;62.18;102244.66;5070788;28;20047;-68
2023/08/21 09:57:15;;;;;;;19.15;10.80;;;;;;;24.99;61.49;102231.09;5068757;28;20033;-68
2023/08/21 09:59:41;;;;;;;19.73;11.10;;;;;;;25.09;60.03;102238.16;5069852;28;20035;-69
2023/08/21 10:02:09;;;;;;;18.30;10.80;;;;;;;25.21;60.93;102235.19;5070031;28;20028;-69
2023/08/21 10:04:35;;;;;;;18.10;11.10;;;;;;;25.38;59.29;102242.38;5070790;28;20472;-69
2023/08/21 10:07:03;;;;;;;18.98;10.98;;;;;;;25.34;58.76;102238.66;5076966;28;20029;-69
2023/08/21 10:09:29;;;;;;;18.88;10.60;;;;;;;25.34;59.79;102229.34;5069013;28;20047;-69
2023/08/21 10:11:55;;;;;;;18.95;11.18;;;;;;;25.32;59.27;102232.53;5068403;28;20741;-70
2023/08/21 10:14:23;;;;;;;17.85;10.82;;;;;;;25.50;59.43;102224.41;5069820;28;20119;-70
2023/08/21 10:16:51;;;;;;;19.63;10.20;;;;;;;25.66;58.42;102218.63;5070141;28;20111;-70
2023/08/21 10:19:17;;;;;;;17.50;10.23;;;;;;;25.56;57.72;102226.94;5069773;28;20032;-70
2023/08/21 10:21:46;;;;;;;18.90;11.90;;;;;;;25.51;58.40;102220.41;5069714;28;20047;-70
2023/08/21 10:24:12;;;;;;;17.73;10.63;;;;;;;25.35;55.49;102214.81;5069659;28;20071;-71
2023/08/21 10:26:40;;;;;;;16.38;9.85;;;;;;;25.45;58.29;102221.06;5069470;28;20060;-69
2023/08/21 10:29:07;;;;;;;16.55;10.00;;;;;;;25.21;53.97;102231.53;5069286;28;20029;-70
2023/08/21 10:31:34;;;;;;;14.07;9.75;;;;;;;25.09;52.71;102224.00;5068093;28;20053;-70
2023/08/21 10:34:05;;;;;;;16.10;10.55;;;;;;;25.11;55.84;102215.16;5069775;28;20090;-70
2023/08/21 10:36:39;;;;;;;14.75;9.88;;;;;;;25.25;54.21;102217.44;5072353;28;20040;-68
2023/08/21 10:39:19;;;;;;;18.45;10.20;;;;;;;25.32;55.56;102195.72;5090201;28;20024;-70
2023/08/21 10:41:58;;;;;;;17.15;10.07;;;;;;;25.44;56.22;102231.59;5090388;28;20464;-69
2023/08/21 10:44:42;;;;;;;17.42;9.60;;;;;;;25.40;55.81;102212.91;5090346;28;20052;-70
2023/08/21 10:47:15;;;;;;;14.00;9.20;;;;;;;25.39;54.32;102229.03;5090484;28;20551;-69
2023/08/21 10:49:40;;;;;;;;;;;;;;;25.43;51.11;102227.13;5091271;28;20034;-69
2023/08/21 10:52:08;;;;;;;15.52;9.00;;;;;;;25.15;53.89;102224.53;5089123;28;19927;-69
2023/08/21 10:54:48;;;;;;;14.55;9.45;;;;;;;25.19;56.03;102223.41;5089962;28;20050;-69
2023/08/21 10:57:14;;;;;;;16.30;9.70;;;;;;;25.25;56.49;102226.75;5089578;28;20110;-69
2023/08/21 10:59:59;;;;;;;13.70;9.13;;;;;;;25.19;54.63;102222.59;5089397;28;20031;-69
2023/08/21 11:02:26;;;;;;;13.48;8.93;;;;;;;25.14;56.80;102232.22;5076052;28;20039;-69
2023/08/21 11:04:52;;;;;;;16.77;8.80;;;;;;;24.94;57.38;102222.88;5068944;28;20536;-69